sensor_id;sensor_type;location;lat;lon;timestamp;P1;durP1;ratioP1;P2;durP2;ratioP2
67156;SDS011;54086;50.126;8.710;2022-10-16T00:01:09;9.73;;;4.77;;
67156;SDS011;54086;50.126;8.710;2022-10-16T00:03:36;7.90;;;4.18;;
67156;SDS011;54086;50.126;8.710;2022-10-16T00:06:06;10.10;;;5.00;;
67156;SDS011;54086;50.126;8.710;2022-10-16T00:08:32;9.15;;;4.28;;
67156;SDS011;54086;50.126;8.710;2022-10-16T00:10:58;10.57;;;5.10;;
67156;SDS011;54086;50.126;8.710;2022-10-16T00:13:25;8.57;;;4.60;;
67156;SDS011;54086;50.126;8.710;2022-10-16T00:15:50;8.30;;;4.33;;
67156;SDS011;54086;50.126;8.710;2022-10-16T00:18:16;8.77;;;4.57;;
67156;SDS011;54086;50.126;8.710;2022-10-16T00:20:41;9.80;;;4.37;;
67156;SDS011;54086;50.126;8.710;2022-10-16T00:23:06;7.93;;;4.30;;
67156;SDS011;54086;50.126;8.710;2022-10-16T00:25:32;8.87;;;4.47;;
67156;SDS011;54086;50.126;8.710;2022-10-16T00:27:58;12.63;;;4.88;;
67156;SDS011;54086;50.126;8.710;2022-10-16T00:30:24;9.83;;;5.00;;
67156;SDS011;54086;50.126;8.710;2022-10-16T00:32:52;8.50;;;4.70;;
67156;SDS011;54086;50.126;8.710;2022-10-16T00:35:18;9.27;;;4.70;;
67156;SDS011;54086;50.126;8.710;2022-10-16T00:37:43;9.13;;;4.93;;
67156;SDS011;54086;50.126;8.710;2022-10-16T00:40:09;9.00;;;4.80;;
67156;SDS011;54086;50.126;8.710;2022-10-16T00:42:34;8.80;;;4.65;;
67156;SDS011;54086;50.126;8.710;2022-10-16T00:45:00;10.87;;;5.40;;
67156;SDS011;54086;50.126;8.710;2022-10-16T00:50:01;9.77;;;4.97;;
67156;SDS011;54086;50.126;8.710;2022-10-16T00:52:36;8.63;;;4.78;;
67156;SDS011;54086;50.126;8.710;2022-10-16T00:55:08;10.05;;;5.20;;
67156;SDS011;54086;50.126;8.710;2022-10-16T00:57:34;8.07;;;4.40;;
67156;SDS011;54086;50.126;8.710;2022-10-16T00:59:59;9.48;;;4.40;;
67156;SDS011;54086;50.126;8.710;2022-10-16T01:02:26;8.40;;;4.30;;
67156;SDS011;54086;50.126;8.710;2022-10-16T01:04:52;8.07;;;4.30;;
67156;SDS011;54086;50.126;8.710;2022-10-16T01:07:37;7.17;;;3.70;;
67156;SDS011;54086;50.126;8.710;2022-10-16T01:12:40;8.33;;;3.83;;
67156;SDS011;54086;50.126;8.710;2022-10-16T01:20:47;9.30;;;3.95;;
67156;SDS011;54086;50.126;8.710;2022-10-16T01:31:39;8.90;;;3.33;;
67156;SDS011;54086;50.126;8.710;2022-10-16T01:36:38;7.50;;;3.80;;
67156;SDS011;54086;50.126;8.710;2022-10-16T01:39:12;8.65;;;3.50;;
67156;SDS011;54086;50.126;8.710;2022-10-16T01:41:46;9.67;;;3.73;;
67156;SDS011;54086;50.126;8.710;2022-10-16T01:44:17;7.10;;;3.30;;
67156;SDS011;54086;50.126;8.710;2022-10-16T01:46:47;9.65;;;3.38;;
67156;SDS011;54086;50.126;8.710;2022-10-16T01:49:15;15.52;;;3.65;;
67156;SDS011;54086;50.126;8.710;2022-10-16T01:51:43;7.55;;;3.30;;
67156;SDS011;54086;50.126;8.710;2022-10-16T01:54:11;7.67;;;3.67;;
67156;SDS011;54086;50.126;8.710;2022-10-16T01:56:39;8.10;;;3.10;;
67156;SDS011;54086;50.126;8.710;2022-10-16T01:59:07;7.22;;;3.40;;
67156;SDS011;54086;50.126;8.710;2022-10-16T02:01:36;7.25;;;3.15;;
67156;SDS011;54086;50.126;8.710;2022-10-16T02:04:11;6.13;;;3.10;;
67156;SDS011;54086;50.126;8.710;2022-10-16T02:06:42;6.20;;;2.80;;
67156;SDS011;54086;50.126;8.710;2022-10-16T02:09:08;6.25;;;2.80;;
67156;SDS011;54086;50.126;8.710;2022-10-16T02:11:33;6.10;;;2.93;;
67156;SDS011;54086;50.126;8.710;2022-10-16T02:14:01;6.20;;;2.97;;
67156;SDS011;54086;50.126;8.710;2022-10-16T02:16:34;7.25;;;2.72;;
67156;SDS011;54086;50.126;8.710;2022-10-16T02:19:01;6.77;;;2.70;;
67156;SDS011;54086;50.126;8.710;2022-10-16T02:21:28;5.53;;;2.40;;
67156;SDS011;54086;50.126;8.710;2022-10-16T02:24:42;6.57;;;2.47;;
67156;SDS011;54086;50.126;8.710;2022-10-16T02:29:30;5.93;;;2.10;;
67156;SDS011;54086;50.126;8.710;2022-10-16T02:32:00;5.55;;;2.13;;
67156;SDS011;54086;50.126;8.710;2022-10-16T02:34:29;4.20;;;2.20;;
67156;SDS011;54086;50.126;8.710;2022-10-16T02:36:57;6.20;;;2.20;;
67156;SDS011;54086;50.126;8.710;2022-10-16T02:39:24;6.10;;;2.13;;
67156;SDS011;54086;50.126;8.710;2022-10-16T02:41:52;6.13;;;2.67;;
67156;SDS011;54086;50.126;8.710;2022-10-16T02:44:17;7.65;;;2.30;;
67156;SDS011;54086;50.126;8.710;2022-10-16T02:46:43;5.77;;;2.07;;
67156;SDS011;54086;50.126;8.710;2022-10-16T02:49:08;5.17;;;2.10;;
67156;SDS011;54086;50.126;8.710;2022-10-16T02:51:33;5.83;;;2.17;;
67156;SDS011;54086;50.126;8.710;2022-10-16T02:53:59;7.43;;;2.07;;
67156;SDS011;54086;50.126;8.710;2022-10-16T02:56:24;6.23;;;2.30;;
67156;SDS011;54086;50.126;8.710;2022-10-16T02:58:49;5.23;;;1.87;;
67156;SDS011;54086;50.126;8.710;2022-10-16T03:01:15;4.17;;;2.03;;
67156;SDS011;54086;50.126;8.710;2022-10-16T03:03:41;5.97;;;1.90;;
67156;SDS011;54086;50.126;8.710;2022-10-16T03:06:07;4.00;;;1.65;;
67156;SDS011;54086;50.126;8.710;2022-10-16T03:08:32;4.13;;;1.60;;
67156;SDS011;54086;50.126;8.710;2022-10-16T03:10:58;5.07;;;1.90;;
67156;SDS011;54086;50.126;8.710;2022-10-16T03:13:23;4.63;;;2.00;;
67156;SDS011;54086;50.126;8.710;2022-10-16T03:15:48;6.17;;;1.90;;
67156;SDS011;54086;50.126;8.710;2022-10-16T03:18:14;4.97;;;1.77;;
67156;SDS011;54086;50.126;8.710;2022-10-16T03:20:39;5.33;;;1.70;;
67156;SDS011;54086;50.126;8.710;2022-10-16T03:23:05;4.30;;;1.75;;
67156;SDS011;54086;50.126;8.710;2022-10-16T03:25:31;4.03;;;1.60;;
67156;SDS011;54086;50.126;8.710;2022-10-16T03:27:57;6.05;;;1.55;;
67156;SDS011;54086;50.126;8.710;2022-10-16T03:30:22;5.97;;;1.70;;
67156;SDS011;54086;50.126;8.710;2022-10-16T03:32:47;4.40;;;1.50;;
67156;SDS011;54086;50.126;8.710;2022-10-16T03:35:13;4.50;;;1.90;;
67156;SDS011;54086;50.126;8.710;2022-10-16T03:37:38;5.90;;;2.30;;
67156;SDS011;54086;50.126;8.710;2022-10-16T03:40:03;4.40;;;1.60;;
67156;SDS011;54086;50.126;8.710;2022-10-16T03:42:29;5.20;;;1.70;;
67156;SDS011;54086;50.126;8.710;2022-10-16T03:44:55;4.50;;;1.70;;
67156;SDS011;54086;50.126;8.710;2022-10-16T03:47:20;5.30;;;1.85;;
67156;SDS011;54086;50.126;8.710;2022-10-16T03:49:48;5.33;;;1.80;;
67156;SDS011;54086;50.126;8.710;2022-10-16T03:52:13;4.80;;;1.50;;
67156;SDS011;54086;50.126;8.710;2022-10-16T03:54:39;5.47;;;1.70;;
67156;SDS011;54086;50.126;8.710;2022-10-16T03:57:04;6.97;;;1.70;;
67156;SDS011;54086;50.126;8.710;2022-10-16T03:59:29;4.83;;;1.63;;
67156;SDS011;54086;50.126;8.710;2022-10-16T04:01:55;4.68;;;1.60;;
67156;SDS011;54086;50.126;8.710;2022-10-16T04:04:20;5.13;;;1.50;;
67156;SDS011;54086;50.126;8.710;2022-10-16T04:06:45;3.53;;;1.60;;
67156;SDS011;54086;50.126;8.710;2022-10-16T04:09:11;5.07;;;1.53;;
67156;SDS011;54086;50.126;8.710;2022-10-16T04:11:36;5.87;;;1.90;;
67156;SDS011;54086;50.126;8.710;2022-10-16T04:14:01;5.10;;;1.70;;
67156;SDS011;54086;50.126;8.710;2022-10-16T04:16:27;3.53;;;1.60;;
67156;SDS011;54086;50.126;8.710;2022-10-16T04:18:52;5.40;;;1.80;;
67156;SDS011;54086;50.126;8.710;2022-10-16T04:21:18;4.37;;;1.73;;
67156;SDS011;54086;50.126;8.710;2022-10-16T04:23:43;4.63;;;1.50;;
67156;SDS011;54086;50.126;8.710;2022-10-16T04:26:08;3.80;;;1.50;;
67156;SDS011;54086;50.126;8.710;2022-10-16T04:28:35;4.97;;;1.80;;
67156;SDS011;54086;50.126;8.710;2022-10-16T04:31:03;4.70;;;1.80;;
67156;SDS011;54086;50.126;8.710;2022-10-16T04:33:29;6.13;;;2.30;;
67156;SDS011;54086;50.126;8.710;2022-10-16T04:35:58;5.28;;;1.70;;
67156;SDS011;54086;50.126;8.710;2022-10-16T04:38:24;4.80;;;1.60;;
67156;SDS011;54086;50.126;8.710;2022-10-16T04:40:50;5.10;;;1.73;;
67156;SDS011;54086;50.126;8.710;2022-10-16T04:43:15;6.17;;;2.03;;
67156;SDS011;54086;50.126;8.710;2022-10-16T04:45:40;6.37;;;1.80;;
67156;SDS011;54086;50.126;8.710;2022-10-16T04:48:06;4.78;;;1.83;;
67156;SDS011;54086;50.126;8.710;2022-10-16T04:50:31;5.53;;;2.00;;
67156;SDS011;54086;50.126;8.710;2022-10-16T04:52:56;5.70;;;1.90;;
67156;SDS011;54086;50.126;8.710;2022-10-16T04:55:22;5.07;;;1.73;;
67156;SDS011;54086;50.126;8.710;2022-10-16T04:57:47;6.47;;;1.67;;
67156;SDS011;54086;50.126;8.710;2022-10-16T05:00:12;5.60;;;2.03;;
67156;SDS011;54086;50.126;8.710;2022-10-16T05:02:38;6.00;;;2.00;;
67156;SDS011;54086;50.126;8.710;2022-10-16T05:05:03;5.80;;;2.03;;
67156;SDS011;54086;50.126;8.710;2022-10-16T05:07:29;5.93;;;2.10;;
67156;SDS011;54086;50.126;8.710;2022-10-16T05:09:54;5.03;;;1.90;;
67156;SDS011;54086;50.126;8.710;2022-10-16T05:12:20;6.53;;;2.07;;
67156;SDS011;54086;50.126;8.710;2022-10-16T05:14:45;5.93;;;1.73;;
67156;SDS011;54086;50.126;8.710;2022-10-16T05:17:10;5.80;;;1.90;;
67156;SDS011;54086;50.126;8.710;2022-10-16T05:19:36;4.33;;;1.43;;
67156;SDS011;54086;50.126;8.710;2022-10-16T05:22:01;5.68;;;2.00;;
67156;SDS011;54086;50.126;8.710;2022-10-16T05:24:27;7.03;;;2.10;;
67156;SDS011;54086;50.126;8.710;2022-10-16T05:26:52;7.17;;;2.13;;
67156;SDS011;54086;50.126;8.710;2022-10-16T05:29:18;4.27;;;1.80;;
67156;SDS011;54086;50.126;8.710;2022-10-16T05:31:43;5.28;;;1.90;;
67156;SDS011;54086;50.126;8.710;2022-10-16T05:34:09;6.13;;;1.97;;
67156;SDS011;54086;50.126;8.710;2022-10-16T05:36:34;5.63;;;2.10;;
67156;SDS011;54086;50.126;8.710;2022-10-16T05:39:00;6.37;;;2.30;;
67156;SDS011;54086;50.126;8.710;2022-10-16T05:41:25;5.53;;;2.00;;
67156;SDS011;54086;50.126;8.710;2022-10-16T05:43:51;6.97;;;2.30;;
67156;SDS011;54086;50.126;8.710;2022-10-16T05:46:17;6.28;;;1.90;;
67156;SDS011;54086;50.126;8.710;2022-10-16T05:48:42;5.77;;;2.10;;
67156;SDS011;54086;50.126;8.710;2022-10-16T05:51:09;6.90;;;2.60;;
67156;SDS011;54086;50.126;8.710;2022-10-16T05:53:36;6.40;;;2.25;;
67156;SDS011;54086;50.126;8.710;2022-10-16T05:56:06;6.32;;;2.00;;
67156;SDS011;54086;50.126;8.710;2022-10-16T05:58:34;5.13;;;1.83;;
67156;SDS011;54086;50.126;8.710;2022-10-16T06:03:28;5.75;;;2.53;;
67156;SDS011;54086;50.126;8.710;2022-10-16T06:05:54;6.83;;;2.20;;
67156;SDS011;54086;50.126;8.710;2022-10-16T06:08:20;5.20;;;2.30;;
67156;SDS011;54086;50.126;8.710;2022-10-16T06:10:47;5.80;;;2.20;;
67156;SDS011;54086;50.126;8.710;2022-10-16T06:13:12;6.03;;;2.40;;
67156;SDS011;54086;50.126;8.710;2022-10-16T06:15:39;6.07;;;2.35;;
67156;SDS011;54086;50.126;8.710;2022-10-16T06:18:09;6.00;;;2.10;;
67156;SDS011;54086;50.126;8.710;2022-10-16T06:20:35;8.63;;;2.47;;
67156;SDS011;54086;50.126;8.710;2022-10-16T06:23:02;7.82;;;2.40;;
67156;SDS011;54086;50.126;8.710;2022-10-16T06:25:29;8.25;;;2.47;;
67156;SDS011;54086;50.126;8.710;2022-10-16T06:27:55;6.47;;;2.80;;
67156;SDS011;54086;50.126;8.710;2022-10-16T06:30:20;6.77;;;2.90;;
67156;SDS011;54086;50.126;8.710;2022-10-16T06:32:45;7.23;;;2.90;;
67156;SDS011;54086;50.126;8.710;2022-10-16T06:35:11;8.10;;;2.93;;
67156;SDS011;54086;50.126;8.710;2022-10-16T06:37:36;6.47;;;2.60;;
67156;SDS011;54086;50.126;8.710;2022-10-16T06:40:01;7.13;;;3.00;;
67156;SDS011;54086;50.126;8.710;2022-10-16T06:42:29;7.95;;;2.90;;
67156;SDS011;54086;50.126;8.710;2022-10-16T06:44:55;6.70;;;2.60;;
67156;SDS011;54086;50.126;8.710;2022-10-16T06:47:20;6.78;;;2.85;;
67156;SDS011;54086;50.126;8.710;2022-10-16T06:49:46;9.57;;;3.60;;
67156;SDS011;54086;50.126;8.710;2022-10-16T06:52:11;8.03;;;3.30;;
67156;SDS011;54086;50.126;8.710;2022-10-16T06:54:36;8.47;;;4.00;;
67156;SDS011;54086;50.126;8.710;2022-10-16T06:57:02;9.48;;;5.00;;
67156;SDS011;54086;50.126;8.710;2022-10-16T06:59:27;12.50;;;5.90;;
67156;SDS011;54086;50.126;8.710;2022-10-16T07:01:53;10.33;;;4.80;;
67156;SDS011;54086;50.126;8.710;2022-10-16T07:04:18;12.10;;;5.23;;
67156;SDS011;54086;50.126;8.710;2022-10-16T07:06:43;10.70;;;5.65;;
67156;SDS011;54086;50.126;8.710;2022-10-16T07:09:10;11.17;;;5.90;;
67156;SDS011;54086;50.126;8.710;2022-10-16T07:11:36;13.05;;;7.03;;
67156;SDS011;54086;50.126;8.710;2022-10-16T07:14:03;12.85;;;6.90;;
67156;SDS011;54086;50.126;8.710;2022-10-16T07:16:32;15.53;;;6.33;;
67156;SDS011;54086;50.126;8.710;2022-10-16T07:19:20;11.90;;;5.97;;
67156;SDS011;54086;50.126;8.710;2022-10-16T07:24:35;11.20;;;6.17;;
67156;SDS011;54086;50.126;8.710;2022-10-16T07:27:00;12.53;;;5.90;;
67156;SDS011;54086;50.126;8.710;2022-10-16T07:29:26;11.93;;;5.68;;
67156;SDS011;54086;50.126;8.710;2022-10-16T07:31:54;11.20;;;6.53;;
67156;SDS011;54086;50.126;8.710;2022-10-16T07:34:20;11.05;;;5.80;;
67156;SDS011;54086;50.126;8.710;2022-10-16T07:36:50;11.32;;;6.40;;
67156;SDS011;54086;50.126;8.710;2022-10-16T07:39:16;10.27;;;6.05;;
67156;SDS011;54086;50.126;8.710;2022-10-16T07:41:41;9.70;;;5.50;;
67156;SDS011;54086;50.126;8.710;2022-10-16T07:44:07;11.90;;;6.05;;
67156;SDS011;54086;50.126;8.710;2022-10-16T07:46:32;12.93;;;4.83;;
67156;SDS011;54086;50.126;8.710;2022-10-16T07:48:59;9.35;;;4.93;;
67156;SDS011;54086;50.126;8.710;2022-10-16T07:51:25;12.20;;;5.07;;
67156;SDS011;54086;50.126;8.710;2022-10-16T07:53:51;9.73;;;5.00;;
67156;SDS011;54086;50.126;8.710;2022-10-16T07:56:17;10.52;;;4.93;;
67156;SDS011;54086;50.126;8.710;2022-10-16T07:58:43;8.68;;;4.55;;
67156;SDS011;54086;50.126;8.710;2022-10-16T08:01:10;7.97;;;4.07;;
67156;SDS011;54086;50.126;8.710;2022-10-16T08:03:38;9.45;;;4.13;;
67156;SDS011;54086;50.126;8.710;2022-10-16T08:06:06;8.07;;;4.10;;
67156;SDS011;54086;50.126;8.710;2022-10-16T08:08:31;13.40;;;4.13;;
67156;SDS011;54086;50.126;8.710;2022-10-16T08:10:57;10.20;;;5.17;;
67156;SDS011;54086;50.126;8.710;2022-10-16T08:13:22;11.57;;;6.53;;
67156;SDS011;54086;50.126;8.710;2022-10-16T08:15:47;9.20;;;5.50;;
67156;SDS011;54086;50.126;8.710;2022-10-16T08:18:13;9.70;;;4.77;;
67156;SDS011;54086;50.126;8.710;2022-10-16T08:20:40;8.98;;;4.35;;
67156;SDS011;54086;50.126;8.710;2022-10-16T08:23:06;8.10;;;4.25;;
67156;SDS011;54086;50.126;8.710;2022-10-16T08:25:33;11.87;;;4.50;;
67156;SDS011;54086;50.126;8.710;2022-10-16T08:27:59;11.13;;;4.82;;
67156;SDS011;54086;50.126;8.710;2022-10-16T08:30:25;9.70;;;4.57;;
67156;SDS011;54086;50.126;8.710;2022-10-16T08:32:50;10.13;;;5.07;;
67156;SDS011;54086;50.126;8.710;2022-10-16T08:35:16;10.65;;;5.15;;
67156;SDS011;54086;50.126;8.710;2022-10-16T08:37:42;9.37;;;5.33;;
67156;SDS011;54086;50.126;8.710;2022-10-16T08:40:13;11.00;;;5.25;;
67156;SDS011;54086;50.126;8.710;2022-10-16T08:43:07;11.27;;;5.75;;
67156;SDS011;54086;50.126;8.710;2022-10-16T08:45:55;11.43;;;6.10;;
67156;SDS011;54086;50.126;8.710;2022-10-16T08:48:23;10.43;;;6.33;;
67156;SDS011;54086;50.126;8.710;2022-10-16T08:50:54;11.15;;;6.25;;
67156;SDS011;54086;50.126;8.710;2022-10-16T08:53:30;11.57;;;6.40;;
67156;SDS011;54086;50.126;8.710;2022-10-16T08:56:01;10.17;;;5.50;;
67156;SDS011;54086;50.126;8.710;2022-10-16T08:58:27;9.57;;;5.40;;
67156;SDS011;54086;50.126;8.710;2022-10-16T09:01:04;10.87;;;5.87;;
67156;SDS011;54086;50.126;8.710;2022-10-16T09:11:48;12.38;;;7.57;;
67156;SDS011;54086;50.126;8.710;2022-10-16T09:16:56;10.25;;;6.13;;
67156;SDS011;54086;50.126;8.710;2022-10-16T09:22:12;11.57;;;5.78;;
67156;SDS011;54086;50.126;8.710;2022-10-16T09:24:40;11.27;;;6.22;;
67156;SDS011;54086;50.126;8.710;2022-10-16T09:27:10;10.87;;;5.67;;
67156;SDS011;54086;50.126;8.710;2022-10-16T09:29:37;8.95;;;5.30;;
67156;SDS011;54086;50.126;8.710;2022-10-16T09:32:12;10.20;;;6.03;;
67156;SDS011;54086;50.126;8.710;2022-10-16T09:34:50;9.60;;;6.15;;
67156;SDS011;54086;50.126;8.710;2022-10-16T09:37:19;10.43;;;5.90;;
67156;SDS011;54086;50.126;8.710;2022-10-16T09:39:51;12.50;;;7.32;;
67156;SDS011;54086;50.126;8.710;2022-10-16T09:42:27;12.90;;;6.80;;
67156;SDS011;54086;50.126;8.710;2022-10-16T09:44:57;12.47;;;7.20;;
67156;SDS011;54086;50.126;8.710;2022-10-16T09:47:24;12.13;;;8.30;;
67156;SDS011;54086;50.126;8.710;2022-10-16T09:49:54;12.38;;;8.32;;
67156;SDS011;54086;50.126;8.710;2022-10-16T09:52:29;11.90;;;7.23;;
67156;SDS011;54086;50.126;8.710;2022-10-16T09:54:59;11.75;;;6.78;;
67156;SDS011;54086;50.126;8.710;2022-10-16T09:57:37;15.98;;;7.70;;
67156;SDS011;54086;50.126;8.710;2022-10-16T10:00:16;14.98;;;7.70;;
67156;SDS011;54086;50.126;8.710;2022-10-16T10:02:42;13.65;;;8.23;;
67156;SDS011;54086;50.126;8.710;2022-10-16T10:05:18;15.20;;;7.63;;
67156;SDS011;54086;50.126;8.710;2022-10-16T10:07:52;14.18;;;8.05;;
67156;SDS011;54086;50.126;8.710;2022-10-16T10:10:26;13.98;;;7.72;;
67156;SDS011;54086;50.126;8.710;2022-10-16T10:12:54;12.57;;;7.17;;
67156;SDS011;54086;50.126;8.710;2022-10-16T10:15:20;12.38;;;7.43;;
67156;SDS011;54086;50.126;8.710;2022-10-16T10:17:55;12.57;;;7.35;;
67156;SDS011;54086;50.126;8.710;2022-10-16T10:22:47;15.30;;;7.57;;
67156;SDS011;54086;50.126;8.710;2022-10-16T10:35:50;12.57;;;7.37;;
67156;SDS011;54086;50.126;8.710;2022-10-16T13:06:52;6.40;;;2.80;;
67156;SDS011;54086;50.126;8.710;2022-10-16T13:09:31;7.55;;;3.50;;
67156;SDS011;54086;50.126;8.710;2022-10-16T13:12:45;7.00;;;3.05;;
67156;SDS011;54086;50.126;8.710;2022-10-16T13:15:11;6.85;;;2.92;;
67156;SDS011;54086;50.126;8.710;2022-10-16T13:17:57;6.60;;;2.80;;
67156;SDS011;54086;50.126;8.710;2022-10-16T13:20:34;5.70;;;2.90;;
67156;SDS011;54086;50.126;8.710;2022-10-16T13:23:23;7.55;;;3.40;;
67156;SDS011;54086;50.126;8.710;2022-10-16T13:28:41;6.28;;;3.10;;
67156;SDS011;54086;50.126;8.710;2022-10-16T13:31:25;5.45;;;2.72;;
67156;SDS011;54086;50.126;8.710;2022-10-16T13:33:51;7.40;;;3.03;;
67156;SDS011;54086;50.126;8.710;2022-10-16T13:38:46;7.35;;;3.38;;
67156;SDS011;54086;50.126;8.710;2022-10-16T13:41:16;6.25;;;2.88;;
67156;SDS011;54086;50.126;8.710;2022-10-16T13:43:43;5.70;;;2.73;;
67156;SDS011;54086;50.126;8.710;2022-10-16T13:46:20;7.97;;;3.00;;
67156;SDS011;54086;50.126;8.710;2022-10-16T13:49:00;6.95;;;2.90;;
67156;SDS011;54086;50.126;8.710;2022-10-16T13:51:28;6.00;;;2.80;;
67156;SDS011;54086;50.126;8.710;2022-10-16T13:53:54;8.73;;;3.28;;
67156;SDS011;54086;50.126;8.710;2022-10-16T13:56:22;6.43;;;2.80;;
67156;SDS011;54086;50.126;8.710;2022-10-16T13:59:25;6.28;;;2.70;;
67156;SDS011;54086;50.126;8.710;2022-10-16T14:01:58;7.82;;;2.97;;
67156;SDS011;54086;50.126;8.710;2022-10-16T14:04:24;4.88;;;2.28;;
67156;SDS011;54086;50.126;8.710;2022-10-16T14:06:54;6.28;;;3.05;;
67156;SDS011;54086;50.126;8.710;2022-10-16T14:11:57;8.75;;;3.17;;
67156;SDS011;54086;50.126;8.710;2022-10-16T14:14:25;5.90;;;2.57;;
67156;SDS011;54086;50.126;8.710;2022-10-16T14:16:55;5.60;;;2.20;;
67156;SDS011;54086;50.126;8.710;2022-10-16T14:19:28;5.70;;;2.72;;
67156;SDS011;54086;50.126;8.710;2022-10-16T14:21:54;7.22;;;2.70;;
67156;SDS011;54086;50.126;8.710;2022-10-16T14:24:25;5.83;;;2.50;;
67156;SDS011;54086;50.126;8.710;2022-10-16T14:26:56;5.97;;;2.50;;
67156;SDS011;54086;50.126;8.710;2022-10-16T14:29:22;6.32;;;2.88;;
67156;SDS011;54086;50.126;8.710;2022-10-16T14:31:59;8.25;;;3.40;;
67156;SDS011;54086;50.126;8.710;2022-10-16T14:39:50;7.03;;;2.60;;
67156;SDS011;54086;50.126;8.710;2022-10-16T14:42:16;5.85;;;2.47;;
67156;SDS011;54086;50.126;8.710;2022-10-16T14:44:44;5.68;;;2.50;;
67156;SDS011;54086;50.126;8.710;2022-10-16T14:47:15;5.30;;;2.58;;
67156;SDS011;54086;50.126;8.710;2022-10-16T14:49:48;6.23;;;2.40;;
67156;SDS011;54086;50.126;8.710;2022-10-16T14:52:14;6.38;;;2.65;;
67156;SDS011;54086;50.126;8.710;2022-10-16T14:54:40;6.13;;;2.40;;
67156;SDS011;54086;50.126;8.710;2022-10-16T14:57:06;6.75;;;3.17;;
67156;SDS011;54086;50.126;8.710;2022-10-16T14:59:42;9.20;;;5.20;;
67156;SDS011;54086;50.126;8.710;2022-10-16T15:04:48;7.28;;;2.55;;
67156;SDS011;54086;50.126;8.710;2022-10-16T15:07:13;6.32;;;2.53;;
67156;SDS011;54086;50.126;8.710;2022-10-16T15:09:39;6.33;;;2.40;;
67156;SDS011;54086;50.126;8.710;2022-10-16T15:12:04;5.73;;;2.73;;
67156;SDS011;54086;50.126;8.710;2022-10-16T15:14:30;5.53;;;2.50;;
67156;SDS011;54086;50.126;8.710;2022-10-16T16:08:10;8.90;;;4.40;;
67156;SDS011;54086;50.126;8.710;2022-10-16T16:10:36;6.95;;;3.97;;
67156;SDS011;54086;50.126;8.710;2022-10-16T16:13:01;8.10;;;4.50;;
67156;SDS011;54086;50.126;8.710;2022-10-16T16:15:29;8.00;;;4.23;;
67156;SDS011;54086;50.126;8.710;2022-10-16T16:17:55;8.90;;;4.97;;
67156;SDS011;54086;50.126;8.710;2022-10-16T16:20:20;8.80;;;4.27;;
67156;SDS011;54086;50.126;8.710;2022-10-16T16:22:46;8.30;;;4.30;;
67156;SDS011;54086;50.126;8.710;2022-10-16T16:25:12;9.07;;;4.43;;
67156;SDS011;54086;50.126;8.710;2022-10-16T16:27:37;8.00;;;5.13;;
67156;SDS011;54086;50.126;8.710;2022-10-16T16:30:04;8.82;;;4.65;;
67156;SDS011;54086;50.126;8.710;2022-10-16T16:32:32;8.73;;;4.30;;
67156;SDS011;54086;50.126;8.710;2022-10-16T16:34:58;9.45;;;4.55;;
67156;SDS011;54086;50.126;8.710;2022-10-16T16:37:23;9.97;;;4.50;;
67156;SDS011;54086;50.126;8.710;2022-10-16T16:39:48;9.03;;;5.03;;
67156;SDS011;54086;50.126;8.710;2022-10-16T16:42:14;10.97;;;5.10;;
67156;SDS011;54086;50.126;8.710;2022-10-16T16:44:39;10.20;;;5.43;;
67156;SDS011;54086;50.126;8.710;2022-10-16T16:47:05;8.75;;;5.30;;
67156;SDS011;54086;50.126;8.710;2022-10-16T16:49:30;9.33;;;5.80;;
67156;SDS011;54086;50.126;8.710;2022-10-16T16:51:56;11.00;;;5.72;;
67156;SDS011;54086;50.126;8.710;2022-10-16T16:54:22;10.13;;;5.70;;
67156;SDS011;54086;50.126;8.710;2022-10-16T16:56:47;11.33;;;5.33;;
67156;SDS011;54086;50.126;8.710;2022-10-16T16:59:13;11.30;;;5.47;;
67156;SDS011;54086;50.126;8.710;2022-10-16T17:01:40;18.33;;;12.20;;
67156;SDS011;54086;50.126;8.710;2022-10-16T17:04:06;9.43;;;5.57;;
67156;SDS011;54086;50.126;8.710;2022-10-16T17:06:32;9.13;;;5.35;;
67156;SDS011;54086;50.126;8.710;2022-10-16T17:08:58;10.40;;;5.67;;
67156;SDS011;54086;50.126;8.710;2022-10-16T17:11:25;9.88;;;5.93;;
67156;SDS011;54086;50.126;8.710;2022-10-16T17:13:52;14.48;;;7.90;;
67156;SDS011;54086;50.126;8.710;2022-10-16T17:16:20;10.00;;;5.93;;
67156;SDS011;54086;50.126;8.710;2022-10-16T17:18:49;11.48;;;6.13;;
67156;SDS011;54086;50.126;8.710;2022-10-16T17:21:15;11.07;;;6.43;;
67156;SDS011;54086;50.126;8.710;2022-10-16T17:23:40;14.33;;;6.50;;
67156;SDS011;54086;50.126;8.710;2022-10-16T17:26:06;10.20;;;6.57;;
67156;SDS011;54086;50.126;8.710;2022-10-16T17:28:37;13.40;;;6.50;;
67156;SDS011;54086;50.126;8.710;2022-10-16T17:31:14;10.23;;;6.25;;
67156;SDS011;54086;50.126;8.710;2022-10-16T17:33:41;11.73;;;6.60;;
67156;SDS011;54086;50.126;8.710;2022-10-16T17:36:07;10.88;;;6.03;;
67156;SDS011;54086;50.126;8.710;2022-10-16T17:38:33;10.18;;;6.72;;
67156;SDS011;54086;50.126;8.710;2022-10-16T17:41:09;12.27;;;6.38;;
67156;SDS011;54086;50.126;8.710;2022-10-16T17:43:36;11.15;;;6.32;;
67156;SDS011;54086;50.126;8.710;2022-10-16T17:46:02;11.43;;;6.43;;
67156;SDS011;54086;50.126;8.710;2022-10-16T17:48:28;12.48;;;7.22;;
67156;SDS011;54086;50.126;8.710;2022-10-16T17:50:53;10.95;;;7.03;;
67156;SDS011;54086;50.126;8.710;2022-10-16T17:53:19;9.80;;;6.93;;
67156;SDS011;54086;50.126;8.710;2022-10-16T17:55:47;14.65;;;7.50;;
67156;SDS011;54086;50.126;8.710;2022-10-16T17:58:12;12.23;;;7.30;;
67156;SDS011;54086;50.126;8.710;2022-10-16T18:00:38;12.07;;;7.53;;
67156;SDS011;54086;50.126;8.710;2022-10-16T18:03:06;12.05;;;7.80;;
67156;SDS011;54086;50.126;8.710;2022-10-16T18:05:36;11.48;;;7.38;;
67156;SDS011;54086;50.126;8.710;2022-10-16T18:08:02;11.97;;;7.60;;
67156;SDS011;54086;50.126;8.710;2022-10-16T18:10:28;13.73;;;8.10;;
67156;SDS011;54086;50.126;8.710;2022-10-16T18:12:53;18.00;;;8.00;;
67156;SDS011;54086;50.126;8.710;2022-10-16T18:15:21;10.50;;;7.13;;
67156;SDS011;54086;50.126;8.710;2022-10-16T18:17:46;11.60;;;7.23;;
67156;SDS011;54086;50.126;8.710;2022-10-16T18:20:11;13.90;;;8.13;;
67156;SDS011;54086;50.126;8.710;2022-10-16T18:22:37;15.15;;;7.80;;
67156;SDS011;54086;50.126;8.710;2022-10-16T18:25:04;13.07;;;9.00;;
67156;SDS011;54086;50.126;8.710;2022-10-16T18:27:31;14.50;;;8.88;;
67156;SDS011;54086;50.126;8.710;2022-10-16T18:29:57;14.25;;;8.60;;
67156;SDS011;54086;50.126;8.710;2022-10-16T18:32:24;16.48;;;8.85;;
67156;SDS011;54086;50.126;8.710;2022-10-16T18:34:50;13.35;;;8.45;;
67156;SDS011;54086;50.126;8.710;2022-10-16T18:37:15;11.73;;;8.10;;
67156;SDS011;54086;50.126;8.710;2022-10-16T18:39:41;15.60;;;8.97;;
67156;SDS011;54086;50.126;8.710;2022-10-16T18:42:11;15.57;;;8.30;;
67156;SDS011;54086;50.126;8.710;2022-10-16T18:44:36;13.23;;;8.87;;
67156;SDS011;54086;50.126;8.710;2022-10-16T18:47:02;15.50;;;9.30;;
67156;SDS011;54086;50.126;8.710;2022-10-16T18:49:27;14.13;;;9.03;;
67156;SDS011;54086;50.126;8.710;2022-10-16T18:51:53;14.45;;;8.52;;
67156;SDS011;54086;50.126;8.710;2022-10-16T18:54:21;15.80;;;8.48;;
67156;SDS011;54086;50.126;8.710;2022-10-16T18:56:47;15.03;;;9.20;;
67156;SDS011;54086;50.126;8.710;2022-10-16T18:59:12;12.50;;;7.80;;
67156;SDS011;54086;50.126;8.710;2022-10-16T19:01:38;15.97;;;9.67;;
67156;SDS011;54086;50.126;8.710;2022-10-16T19:04:08;14.07;;;8.63;;
67156;SDS011;54086;50.126;8.710;2022-10-16T19:06:37;12.40;;;8.43;;
67156;SDS011;54086;50.126;8.710;2022-10-16T19:09:05;13.57;;;8.77;;
67156;SDS011;54086;50.126;8.710;2022-10-16T19:11:31;14.70;;;9.20;;
67156;SDS011;54086;50.126;8.710;2022-10-16T19:13:57;13.07;;;9.57;;
67156;SDS011;54086;50.126;8.710;2022-10-16T19:16:24;16.02;;;9.40;;
67156;SDS011;54086;50.126;8.710;2022-10-16T19:18:52;14.90;;;9.93;;